createdAt,value
2017-03-15T00:00:45.427Z,0
2017-03-15T00:01:53.514Z,0
2017-03-15T00:03:01.601Z,0
2017-03-15T00:04:09.691Z,0
2017-03-15T00:05:17.777Z,0
2017-03-15T00:06:25.869Z,0
2017-03-15T00:07:33.961Z,0
2017-03-15T00:08:42.052Z,0
2017-03-15T00:09:50.138Z,0
2017-03-15T00:10:58.227Z,0
2017-03-15T00:12:06.320Z,0
2017-03-15T00:13:14.406Z,0
2017-03-15T00:14:22.514Z,0
2017-03-15T00:15:30.583Z,0
2017-03-15T00:16:38.674Z,0
2017-03-15T00:17:46.765Z,0
2017-03-15T00:18:54.850Z,0
2017-03-15T00:20:02.935Z,0
2017-03-15T00:21:11.027Z,0
2017-03-15T00:22:19.115Z,0
2017-03-15T00:23:27.203Z,0
2017-03-15T00:24:35.291Z,0
2017-03-15T00:25:43.385Z,0
2017-03-15T00:26:51.465Z,0
2017-03-15T00:27:59.556Z,0
2017-03-15T00:29:07.642Z,0
2017-03-15T00:30:15.734Z,0
2017-03-15T00:31:23.826Z,0
2017-03-15T00:32:31.915Z,0
2017-03-15T00:33:39.998Z,0
2017-03-15T00:34:48.081Z,0
2017-03-15T00:35:56.171Z,0
2017-03-15T00:37:04.266Z,0
2017-03-15T00:38:12.350Z,0
2017-03-15T00:39:20.441Z,0
2017-03-15T00:40:28.540Z,0
2017-03-15T00:41:36.622Z,0
2017-03-15T00:42:44.705Z,0
2017-03-15T00:43:52.800Z,0
2017-03-15T00:45:01.190Z,0
2017-03-15T00:46:08.971Z,0
2017-03-15T00:47:17.061Z,0
2017-03-15T00:48:25.153Z,0
2017-03-15T00:49:33.235Z,0
2017-03-15T00:50:41.320Z,0
2017-03-15T00:51:49.416Z,0
2017-03-15T00:52:57.509Z,0
2017-03-15T00:54:05.595Z,0
2017-03-15T00:55:13.679Z,0
2017-03-15T00:56:21.773Z,0
2017-03-15T00:57:29.862Z,0
2017-03-15T00:58:37.945Z,0
2017-03-15T00:59:46.035Z,0
2017-03-15T01:00:54.124Z,0
2017-03-15T01:02:02.212Z,0
2017-03-15T01:03:10.308Z,0
2017-03-15T01:04:18.397Z,0
2017-03-15T01:05:26.487Z,0
2017-03-15T01:06:34.574Z,0
2017-03-15T01:07:42.664Z,0
2017-03-15T01:08:50.939Z,0
2017-03-15T01:09:58.840Z,0
2017-03-15T01:11:06.935Z,0
2017-03-15T01:12:15.027Z,0
2017-03-15T01:13:23.120Z,0
2017-03-15T01:14:31.210Z,0
2017-03-15T01:15:39.299Z,0
2017-03-15T01:16:47.388Z,0
2017-03-15T01:17:55.475Z,0
2017-03-15T01:19:03.562Z,0
2017-03-15T01:20:11.651Z,0
2017-03-15T01:21:19.736Z,0
2017-03-15T01:22:27.825Z,0
2017-03-15T01:23:35.916Z,0
2017-03-15T01:24:44.002Z,0
2017-03-15T01:25:52.084Z,0
2017-03-15T01:27:00.177Z,0
2017-03-15T01:28:08.272Z,0
2017-03-15T01:29:16.385Z,0
2017-03-15T01:30:24.443Z,0
2017-03-15T01:31:32.536Z,0
2017-03-15T01:32:40.624Z,0
2017-03-15T01:33:48.709Z,0
2017-03-15T01:34:56.800Z,0
2017-03-15T01:36:04.890Z,0
2017-03-15T01:37:12.979Z,0
2017-03-15T01:38:21.073Z,0
2017-03-15T01:39:29.161Z,0
2017-03-15T01:40:37.252Z,0
2017-03-15T01:41:45.344Z,0
2017-03-15T01:42:53.431Z,0
2017-03-15T01:44:01.518Z,0
2017-03-15T01:45:09.604Z,0
2017-03-15T01:46:17.692Z,0
2017-03-15T01:47:25.784Z,0
2017-03-15T01:48:33.872Z,0
2017-03-15T01:49:41.961Z,0
2017-03-15T01:50:50.051Z,0
2017-03-15T01:51:58.137Z,0
2017-03-15T01:53:06.224Z,0
2017-03-15T01:54:14.310Z,0
2017-03-15T01:55:22.398Z,0
2017-03-15T01:56:30.490Z,0
2017-03-15T01:57:38.575Z,0
2017-03-15T01:58:46.668Z,0
2017-03-15T01:59:54.755Z,0
2017-03-15T02:01:02.839Z,0
2017-03-15T02:02:10.929Z,0
2017-03-15T02:03:19.024Z,0
2017-03-15T02:04:27.115Z,0
2017-03-15T02:05:35.203Z,0
2017-03-15T02:06:43.298Z,0
2017-03-15T02:07:51.390Z,0
2017-03-15T02:08:59.471Z,0
2017-03-15T02:10:07.565Z,0
2017-03-15T02:11:15.653Z,0
2017-03-15T02:12:23.750Z,0
2017-03-15T02:13:31.838Z,0
2017-03-15T02:14:39.930Z,0
2017-03-15T02:15:48.031Z,0
2017-03-15T02:16:56.117Z,0
2017-03-15T02:18:04.203Z,0
2017-03-15T02:19:12.289Z,0
2017-03-15T02:20:20.378Z,0
2017-03-15T02:21:28.461Z,0
2017-03-15T02:22:36.554Z,0
2017-03-15T02:23:44.642Z,0
2017-03-15T02:24:52.738Z,0
2017-03-15T02:26:00.880Z,0
2017-03-15T02:27:08.914Z,0
2017-03-15T02:28:17.032Z,0
2017-03-15T02:29:25.085Z,0
2017-03-15T02:30:33.176Z,0
2017-03-15T02:31:41.265Z,0
2017-03-15T02:32:49.352Z,0
2017-03-15T02:33:57.451Z,0
2017-03-15T02:35:05.546Z,0
2017-03-15T02:36:13.627Z,0
2017-03-15T02:37:21.712Z,0
2017-03-15T02:38:29.803Z,0
2017-03-15T02:39:37.891Z,0
2017-03-15T02:40:45.978Z,0
2017-03-15T02:41:54.072Z,0
2017-03-15T02:43:02.215Z,0
2017-03-15T02:44:10.245Z,0
2017-03-15T02:45:18.330Z,0
2017-03-15T02:46:26.422Z,0
2017-03-15T02:47:34.505Z,0
2017-03-15T02:48:42.597Z,0
2017-03-15T02:49:50.692Z,0
2017-03-15T02:50:58.777Z,0
2017-03-15T02:52:06.871Z,0
2017-03-15T02:53:14.956Z,0
2017-03-15T02:54:23.046Z,0
2017-03-15T02:55:31.131Z,0
2017-03-15T02:56:39.213Z,0
2017-03-15T02:57:47.306Z,0
2017-03-15T02:58:55.394Z,0
2017-03-15T03:00:03.480Z,0
2017-03-15T03:01:11.566Z,0
2017-03-15T03:02:19.659Z,0
2017-03-15T03:03:27.745Z,0
2017-03-15T03:04:35.833Z,0
2017-03-15T03:05:43.921Z,0
2017-03-15T03:06:52.008Z,0
2017-03-15T03:08:00.094Z,0
2017-03-15T03:09:08.183Z,0
2017-03-15T03:10:16.288Z,0
2017-03-15T03:11:24.375Z,0
2017-03-15T03:12:32.462Z,0
2017-03-15T03:13:40.551Z,0
2017-03-15T03:14:48.647Z,0
2017-03-15T03:15:56.729Z,0
2017-03-15T03:17:04.821Z,0
2017-03-15T03:18:12.912Z,0
2017-03-15T03:19:20.998Z,0
2017-03-15T03:20:29.080Z,0
2017-03-15T03:21:37.171Z,0
2017-03-15T03:22:45.256Z,0
2017-03-15T03:23:53.341Z,0
2017-03-15T03:25:01.426Z,0
2017-03-15T03:26:09.517Z,0
2017-03-15T03:27:17.612Z,0
2017-03-15T03:28:25.696Z,0
2017-03-15T03:29:33.788Z,0
2017-03-15T03:30:41.876Z,0
2017-03-15T03:31:49.966Z,0
2017-03-15T03:32:58.051Z,0
2017-03-15T03:34:06.138Z,0
2017-03-15T03:35:14.223Z,0
2017-03-15T03:36:22.310Z,0
2017-03-15T03:37:30.397Z,0
2017-03-15T03:38:38.495Z,0
2017-03-15T03:39:46.578Z,0
2017-03-15T03:40:54.675Z,0
2017-03-15T03:42:02.767Z,0
2017-03-15T03:43:10.895Z,0
2017-03-15T03:44:18.940Z,0
2017-03-15T03:45:27.034Z,0
2017-03-15T03:46:35.119Z,0
2017-03-15T03:47:43.202Z,0
2017-03-15T03:48:51.293Z,0
2017-03-15T03:49:59.383Z,0
2017-03-15T03:51:07.470Z,0
2017-03-15T03:52:15.556Z,0
2017-03-15T03:53:23.644Z,0
2017-03-15T03:54:31.734Z,0
2017-03-15T03:55:39.823Z,0
2017-03-15T03:56:47.908Z,0
2017-03-15T03:57:56.001Z,0
2017-03-15T03:59:04.090Z,0
2017-03-15T04:00:12.184Z,0
2017-03-15T04:01:20.274Z,0
2017-03-15T04:02:28.359Z,0
2017-03-15T04:03:36.444Z,0
2017-03-15T04:04:44.536Z,0
2017-03-15T04:05:52.621Z,0
2017-03-15T04:07:00.706Z,0
2017-03-15T04:08:08.787Z,0
2017-03-15T04:09:16.881Z,0
2017-03-15T04:10:24.967Z,0
2017-03-15T04:11:33.062Z,0
2017-03-15T04:12:41.147Z,0
2017-03-15T04:13:49.232Z,0
2017-03-15T04:14:57.320Z,0
2017-03-15T04:16:05.411Z,0
2017-03-15T04:17:13.498Z,0
2017-03-15T04:18:21.582Z,0
2017-03-15T04:19:29.671Z,0
2017-03-15T04:20:37.761Z,0
2017-03-15T04:21:45.844Z,0
2017-03-15T04:22:53.935Z,0
2017-03-15T04:24:02.012Z,0
2017-03-15T04:25:10.105Z,0
2017-03-15T04:26:18.192Z,0
2017-03-15T04:27:26.275Z,0
2017-03-15T04:28:34.369Z,0
2017-03-15T04:29:42.459Z,0
2017-03-15T04:30:50.545Z,0
2017-03-15T04:31:58.628Z,0
2017-03-15T04:33:06.718Z,0
2017-03-15T04:34:14.809Z,0
2017-03-15T04:35:22.891Z,0
2017-03-15T04:36:30.978Z,0
2017-03-15T04:37:39.068Z,0
2017-03-15T04:38:47.155Z,0
2017-03-15T04:39:55.236Z,0
2017-03-15T04:41:03.324Z,0
2017-03-15T04:42:11.411Z,0
2017-03-15T04:43:19.494Z,0
2017-03-15T04:44:27.582Z,0
2017-03-15T04:45:35.669Z,0
2017-03-15T04:46:43.755Z,0
2017-03-15T04:47:51.844Z,0
2017-03-15T04:48:59.930Z,0
2017-03-15T04:50:08.017Z,0
2017-03-15T04:51:16.105Z,0
2017-03-15T04:52:24.201Z,0
2017-03-15T04:53:32.288Z,0
2017-03-15T04:54:40.425Z,0
2017-03-15T04:55:48.463Z,0
2017-03-15T04:56:56.552Z,0
2017-03-15T04:58:04.636Z,0
2017-03-15T04:59:12.725Z,0
2017-03-15T05:00:20.823Z,0
2017-03-15T05:01:28.904Z,0
2017-03-15T05:02:36.988Z,0
2017-03-15T05:03:45.077Z,0
2017-03-15T05:04:53.161Z,0
2017-03-15T05:06:01.251Z,0
2017-03-15T05:07:09.332Z,0
2017-03-15T05:08:17.427Z,0
2017-03-15T05:09:25.510Z,0
2017-03-15T05:10:33.596Z,0
2017-03-15T05:11:42.105Z,0
2017-03-15T05:12:49.775Z,0
2017-03-15T05:13:57.863Z,0
2017-03-15T05:15:05.947Z,0
2017-03-15T05:16:14.089Z,0
2017-03-15T05:17:22.127Z,0
2017-03-15T05:18:30.219Z,0
2017-03-15T05:19:38.307Z,0
2017-03-15T05:20:46.949Z,0
2017-03-15T05:21:54.488Z,0
2017-03-15T05:23:02.568Z,0
2017-03-15T05:24:10.655Z,0
2017-03-15T05:25:18.737Z,0
2017-03-15T05:26:26.821Z,0
2017-03-15T05:27:35.099Z,0
2017-03-15T05:28:43.068Z,0
2017-03-15T05:29:51.086Z,0
2017-03-15T05:30:59.171Z,0
2017-03-15T05:32:07.344Z,0
2017-03-15T05:33:15.365Z,0
2017-03-15T05:34:23.444Z,0
2017-03-15T05:35:31.533Z,0
2017-03-15T05:36:39.621Z,4
2017-03-15T05:37:47.705Z,4
2017-03-15T05:38:56.460Z,0
2017-03-15T05:40:03.889Z,0
2017-03-15T05:41:12.045Z,0
2017-03-15T05:42:20.061Z,0
2017-03-15T05:43:28.155Z,4
2017-03-15T05:44:36.246Z,4
2017-03-15T05:45:44.329Z,0
2017-03-15T05:46:52.420Z,0
2017-03-15T05:48:00.508Z,4
2017-03-15T05:49:08.595Z,4
2017-03-15T05:50:16.694Z,0
2017-03-15T05:51:24.781Z,4
2017-03-15T05:52:32.877Z,4
2017-03-15T05:53:40.952Z,4
2017-03-15T05:54:49.039Z,4
2017-03-15T05:55:57.135Z,4
2017-03-15T05:57:05.213Z,4
2017-03-15T05:58:13.296Z,4
2017-03-15T05:59:21.388Z,8
2017-03-15T06:00:29.488Z,4
2017-03-15T06:01:37.564Z,8
2017-03-15T06:02:45.658Z,4
2017-03-15T06:03:53.740Z,8
2017-03-15T06:05:01.826Z,8
2017-03-15T06:06:09.910Z,8
2017-03-15T06:07:17.999Z,8
2017-03-15T06:08:26.084Z,8
2017-03-15T06:09:34.168Z,8
2017-03-15T06:10:42.259Z,8
2017-03-15T06:11:50.346Z,12
2017-03-15T06:12:58.429Z,12
2017-03-15T06:14:06.515Z,12
2017-03-15T06:15:14.607Z,12
2017-03-15T06:16:22.702Z,12
2017-03-15T06:17:30.790Z,16
2017-03-15T06:18:38.877Z,20
2017-03-15T06:19:46.963Z,24
2017-03-15T06:20:55.050Z,28
2017-03-15T06:22:03.133Z,24
2017-03-15T06:23:11.225Z,24
2017-03-15T06:24:19.303Z,20
2017-03-15T06:25:27.395Z,28
2017-03-15T06:26:35.486Z,20
2017-03-15T06:27:43.576Z,28
2017-03-15T06:28:51.663Z,24
2017-03-15T06:29:59.748Z,20
2017-03-15T06:31:07.838Z,20
2017-03-15T06:32:15.922Z,28
2017-03-15T06:33:24.011Z,28
2017-03-15T06:34:32.109Z,32
2017-03-15T06:35:40.189Z,36
2017-03-15T06:36:48.276Z,40
2017-03-15T06:37:56.366Z,36
2017-03-15T06:39:04.504Z,40
2017-03-15T06:40:12.545Z,40
2017-03-15T06:41:20.628Z,40
2017-03-15T06:42:28.722Z,36
2017-03-15T06:43:36.807Z,28
2017-03-15T06:44:44.897Z,28
2017-03-15T06:45:52.983Z,28
2017-03-15T06:47:01.069Z,24
2017-03-15T06:48:09.157Z,24
2017-03-15T06:49:17.242Z,24
2017-03-15T06:50:25.343Z,24
2017-03-15T06:51:33.429Z,24
2017-03-15T06:52:41.513Z,24
2017-03-15T06:53:49.602Z,24
2017-03-15T06:54:58.180Z,24
2017-03-15T06:56:05.778Z,32
2017-03-15T06:57:13.869Z,36
2017-03-15T06:58:21.951Z,36
2017-03-15T06:59:30.042Z,36
2017-03-15T07:00:38.122Z,36
2017-03-15T07:01:46.213Z,32
2017-03-15T07:02:54.307Z,36
2017-03-15T07:04:02.390Z,36
2017-03-15T07:05:10.486Z,36
2017-03-15T07:06:19.245Z,36
2017-03-15T07:07:26.974Z,32
2017-03-15T07:08:34.979Z,32
2017-03-15T07:09:42.916Z,28
2017-03-15T07:10:50.916Z,28
2017-03-15T07:11:58.996Z,28
2017-03-15T07:13:07.094Z,32
2017-03-15T07:14:15.192Z,32
2017-03-15T07:15:23.282Z,32
2017-03-15T07:16:31.364Z,28
2017-03-15T07:17:39.452Z,24
2017-03-15T07:18:47.543Z,24
2017-03-15T07:19:55.641Z,28
2017-03-15T07:21:03.727Z,28
2017-03-15T07:22:11.816Z,32
2017-03-15T07:23:19.909Z,36
2017-03-15T07:24:27.997Z,44
2017-03-15T07:25:36.085Z,44
2017-03-15T07:26:44.174Z,40
2017-03-15T07:27:52.259Z,36
2017-03-15T07:29:00.678Z,40
2017-03-15T07:30:08.816Z,44
2017-03-15T07:31:16.527Z,48
2017-03-15T07:32:25.020Z,44
2017-03-15T07:33:32.703Z,44
2017-03-15T07:34:40.792Z,44
2017-03-15T07:35:48.872Z,44
2017-03-15T07:36:56.964Z,48
2017-03-15T07:38:05.050Z,48
2017-03-15T07:39:13.137Z,48
2017-03-15T07:40:21.328Z,40
2017-03-15T07:41:29.309Z,56
2017-03-15T07:42:37.399Z,56
2017-03-15T07:43:45.487Z,56
2017-03-15T07:44:54.093Z,48
2017-03-15T07:46:01.665Z,44
2017-03-15T07:47:09.783Z,48
2017-03-15T07:48:17.838Z,52
2017-03-15T07:49:25.930Z,44
2017-03-15T07:50:34.024Z,44
2017-03-15T07:51:42.107Z,44
2017-03-15T07:52:50.199Z,44
2017-03-15T07:53:58.291Z,52
2017-03-15T07:55:06.377Z,48
2017-03-15T07:56:14.459Z,48
2017-03-15T07:57:22.609Z,48
2017-03-15T07:58:30.638Z,40
2017-03-15T07:59:38.719Z,44
2017-03-15T08:00:46.809Z,44
2017-03-15T08:01:54.902Z,40
2017-03-15T08:03:02.993Z,40
2017-03-15T08:04:11.071Z,44
2017-03-15T08:05:19.171Z,40
2017-03-15T08:06:27.259Z,40
2017-03-15T08:07:35.348Z,44
2017-03-15T08:08:43.428Z,48
2017-03-15T08:09:51.523Z,52
2017-03-15T08:10:59.603Z,52
2017-03-15T08:12:07.691Z,44
2017-03-15T08:13:15.781Z,48
2017-03-15T08:14:23.966Z,48
2017-03-15T08:15:31.962Z,52
2017-03-15T08:16:40.050Z,52
2017-03-15T08:17:48.149Z,48
2017-03-15T08:18:56.224Z,52
2017-03-15T08:20:04.305Z,52
2017-03-15T08:21:12.399Z,56
2017-03-15T08:22:20.492Z,56
2017-03-15T08:23:28.569Z,56
2017-03-15T08:24:36.660Z,56
2017-03-15T08:25:44.929Z,52
2017-03-15T08:26:52.829Z,56
2017-03-15T08:28:00.914Z,52
2017-03-15T08:29:09.659Z,56
2017-03-15T08:30:17.093Z,48
2017-03-15T08:31:25.179Z,52
2017-03-15T08:32:33.267Z,52
2017-03-15T08:33:41.358Z,52
2017-03-15T08:34:49.440Z,56
2017-03-15T08:35:57.531Z,48
2017-03-15T08:37:05.621Z,52
2017-03-15T08:38:13.707Z,52
2017-03-15T08:39:21.791Z,60
2017-03-15T08:40:29.880Z,52
2017-03-15T08:41:37.967Z,48
2017-03-15T08:42:46.054Z,52
2017-03-15T08:43:54.138Z,44
2017-03-15T08:45:02.231Z,44
2017-03-15T08:46:10.315Z,48
2017-03-15T08:47:18.403Z,56
2017-03-15T08:48:26.489Z,56
2017-03-15T08:49:34.571Z,52
2017-03-15T08:50:42.654Z,52
2017-03-15T08:51:50.748Z,56
2017-03-15T08:52:58.836Z,48
2017-03-15T08:54:06.922Z,52
2017-03-15T08:55:15.009Z,56
2017-03-15T08:56:23.095Z,56
2017-03-15T08:57:31.183Z,56
2017-03-15T08:58:39.264Z,60
2017-03-15T08:59:47.353Z,56
2017-03-15T09:00:55.447Z,56
2017-03-15T09:02:03.539Z,52
2017-03-15T09:03:11.615Z,56
2017-03-15T09:04:19.707Z,56
2017-03-15T09:05:27.792Z,52
2017-03-15T09:06:35.883Z,52
2017-03-15T09:07:43.974Z,56
2017-03-15T09:08:52.063Z,56
2017-03-15T09:10:00.147Z,56
2017-03-15T09:11:08.234Z,48
2017-03-15T09:12:16.328Z,56
2017-03-15T09:13:24.408Z,48
2017-03-15T09:14:32.503Z,52
2017-03-15T09:15:40.581Z,52
2017-03-15T09:16:48.666Z,48
2017-03-15T09:17:56.756Z,44
2017-03-15T09:19:04.837Z,52
2017-03-15T09:20:12.927Z,48
2017-03-15T09:21:21.012Z,56
2017-03-15T09:22:29.094Z,56
2017-03-15T09:23:37.211Z,52
2017-03-15T09:24:45.276Z,52
2017-03-15T09:25:54.947Z,52
2017-03-15T09:27:01.444Z,44
2017-03-15T09:28:09.537Z,52
2017-03-15T09:29:17.624Z,52
2017-03-15T09:30:25.711Z,52
2017-03-15T09:31:33.796Z,56
2017-03-15T09:32:41.979Z,60
2017-03-15T09:33:49.976Z,60
2017-03-15T09:34:58.057Z,60
2017-03-15T09:36:06.153Z,60
2017-03-15T09:37:14.234Z,60
2017-03-15T09:38:22.331Z,56
2017-03-15T09:39:30.421Z,60
2017-03-15T09:40:38.519Z,56
2017-03-15T09:41:46.606Z,48
2017-03-15T09:42:54.693Z,56
2017-03-15T09:44:02.849Z,56
2017-03-15T09:45:10.879Z,52
2017-03-15T09:46:18.959Z,52
2017-03-15T09:47:27.046Z,52
2017-03-15T09:48:35.136Z,52
2017-03-15T09:49:43.221Z,56
2017-03-15T09:50:51.308Z,52
2017-03-15T09:51:59.399Z,52
2017-03-15T09:53:07.486Z,56
2017-03-15T09:54:15.567Z,52
2017-03-15T09:55:24.043Z,56
2017-03-15T09:56:31.786Z,52
2017-03-15T09:57:39.972Z,52
2017-03-15T09:58:47.920Z,52
2017-03-15T09:59:56.008Z,52
2017-03-15T10:01:04.089Z,48
2017-03-15T10:02:12.177Z,48
2017-03-15T10:03:20.268Z,48
2017-03-15T10:04:28.356Z,48
2017-03-15T10:05:36.440Z,48
2017-03-15T10:06:44.525Z,52
2017-03-15T10:07:52.615Z,52
2017-03-15T10:09:00.698Z,56
2017-03-15T10:10:08.787Z,56
2017-03-15T10:11:16.875Z,60
2017-03-15T10:12:24.971Z,60
2017-03-15T10:13:33.049Z,56
2017-03-15T10:14:41.141Z,56
2017-03-15T10:15:49.225Z,60
2017-03-15T10:16:57.312Z,56
2017-03-15T10:18:05.400Z,64
2017-03-15T10:19:13.479Z,56
2017-03-15T10:20:21.569Z,60
2017-03-15T10:21:29.653Z,48
2017-03-15T10:22:37.750Z,64
2017-03-15T10:23:45.844Z,52
2017-03-15T10:24:53.919Z,60
2017-03-15T10:26:02.008Z,64
2017-03-15T10:27:10.104Z,64
2017-03-15T10:28:18.190Z,68
2017-03-15T10:29:26.280Z,68
2017-03-15T10:30:35.042Z,64
2017-03-15T10:31:42.533Z,60
2017-03-15T10:32:50.750Z,64
2017-03-15T10:33:59.063Z,64
2017-03-15T10:35:06.718Z,72
2017-03-15T10:36:14.797Z,72
2017-03-15T10:37:22.890Z,64
2017-03-15T10:38:30.980Z,64
2017-03-15T10:39:39.105Z,72
2017-03-15T10:40:47.156Z,76
2017-03-15T10:41:55.241Z,76
2017-03-15T10:43:03.502Z,76
2017-03-15T10:44:11.846Z,72
2017-03-15T10:45:19.509Z,76
2017-03-15T10:46:27.701Z,76
2017-03-15T10:47:36.193Z,68
2017-03-15T10:48:44.457Z,68
2017-03-15T10:49:52.295Z,60
2017-03-15T10:51:00.608Z,52
2017-03-15T10:52:08.042Z,52
2017-03-15T10:53:16.133Z,64
2017-03-15T10:54:24.222Z,68
2017-03-15T10:55:32.305Z,64
2017-03-15T10:56:40.398Z,60
2017-03-15T10:57:48.479Z,60
2017-03-15T10:58:56.568Z,60
2017-03-15T11:00:04.705Z,56
2017-03-15T11:01:12.737Z,64
2017-03-15T11:02:20.827Z,68
2017-03-15T11:03:28.919Z,56
2017-03-15T11:04:37.006Z,64
2017-03-15T11:05:45.092Z,56
2017-03-15T11:06:53.189Z,72
2017-03-15T11:08:01.276Z,64
2017-03-15T11:09:09.363Z,52
2017-03-15T11:10:17.455Z,60
2017-03-15T11:11:25.542Z,72
2017-03-15T11:12:33.627Z,68
2017-03-15T11:13:41.715Z,72
2017-03-15T11:14:49.804Z,68
2017-03-15T11:15:57.892Z,72
2017-03-15T11:17:05.978Z,72
2017-03-15T11:18:14.066Z,68
2017-03-15T11:19:22.159Z,68
2017-03-15T11:20:30.248Z,64
2017-03-15T11:21:38.328Z,68
2017-03-15T11:22:46.420Z,60
2017-03-15T11:23:54.520Z,52
2017-03-15T11:25:02.591Z,56
2017-03-15T11:26:10.679Z,64
2017-03-15T11:27:18.766Z,64
2017-03-15T11:28:26.856Z,60
2017-03-15T11:29:34.946Z,60
2017-03-15T11:30:43.031Z,56
2017-03-15T11:31:51.123Z,56
2017-03-15T11:32:59.208Z,56
2017-03-15T11:34:07.303Z,56
2017-03-15T11:35:15.387Z,56
2017-03-15T11:36:23.474Z,56
2017-03-15T11:37:31.565Z,52
2017-03-15T11:38:39.650Z,56
2017-03-15T11:39:47.742Z,56
2017-03-15T11:40:55.827Z,56
2017-03-15T11:42:03.917Z,56
2017-03-15T11:43:12.005Z,56
2017-03-15T11:44:20.092Z,56
2017-03-15T11:45:28.178Z,56
2017-03-15T11:46:36.286Z,56
2017-03-15T11:47:44.353Z,56
2017-03-15T11:48:52.489Z,52
2017-03-15T11:50:00.537Z,52
2017-03-15T11:51:08.616Z,56
2017-03-15T11:52:16.703Z,52
2017-03-15T11:53:24.787Z,52
2017-03-15T11:54:32.883Z,52
2017-03-15T11:55:40.965Z,52
2017-03-15T11:56:49.055Z,52
2017-03-15T11:57:57.145Z,52
2017-03-15T11:59:05.234Z,52
2017-03-15T12:00:13.317Z,52
2017-03-15T12:01:21.406Z,52
2017-03-15T12:02:29.506Z,52
2017-03-15T12:03:37.600Z,52
2017-03-15T12:04:45.665Z,52
2017-03-15T12:05:53.763Z,52
2017-03-15T12:07:01.854Z,52
2017-03-15T12:08:09.947Z,52
2017-03-15T12:09:18.033Z,52
2017-03-15T12:10:26.122Z,44
2017-03-15T12:11:34.205Z,52
2017-03-15T12:12:42.288Z,56
2017-03-15T12:13:50.377Z,52
2017-03-15T12:14:58.462Z,56
2017-03-15T12:16:06.543Z,52
2017-03-15T12:17:14.638Z,48
2017-03-15T12:18:22.723Z,44
2017-03-15T12:19:30.810Z,52
2017-03-15T12:20:38.893Z,56
2017-03-15T12:21:46.981Z,56
2017-03-15T12:22:55.071Z,52
2017-03-15T12:24:03.156Z,56
2017-03-15T12:25:11.243Z,56
2017-03-15T12:26:19.337Z,56
2017-03-15T12:27:27.413Z,60
2017-03-15T12:28:35.501Z,56
2017-03-15T12:29:43.596Z,56
2017-03-15T12:30:51.691Z,60
2017-03-15T12:31:59.771Z,60
2017-03-15T12:33:07.954Z,56
2017-03-15T12:34:16.030Z,56
2017-03-15T12:35:24.117Z,60
2017-03-15T12:36:32.126Z,60
2017-03-15T12:37:40.209Z,60
2017-03-15T12:38:48.291Z,60
2017-03-15T12:39:56.376Z,56
2017-03-15T12:41:04.474Z,60
2017-03-15T12:42:12.551Z,56
2017-03-15T12:43:20.635Z,52
2017-03-15T12:44:28.724Z,56
2017-03-15T12:45:36.816Z,52
2017-03-15T12:46:44.899Z,52
2017-03-15T12:47:52.982Z,48
2017-03-15T12:49:01.076Z,44
2017-03-15T12:50:09.165Z,44
2017-03-15T12:51:17.244Z,48
2017-03-15T12:52:25.336Z,52
2017-03-15T12:53:33.422Z,48
2017-03-15T12:54:41.507Z,48
2017-03-15T12:55:49.592Z,52
2017-03-15T12:56:57.680Z,48
2017-03-15T12:58:05.775Z,48
2017-03-15T12:59:13.850Z,52
2017-03-15T13:00:21.942Z,52
2017-03-15T13:01:30.038Z,52
2017-03-15T13:02:38.114Z,52
2017-03-15T13:03:46.198Z,56
2017-03-15T13:04:54.288Z,56
2017-03-15T13:06:02.375Z,56
2017-03-15T13:07:10.461Z,56
2017-03-15T13:08:18.551Z,56
2017-03-15T13:09:26.635Z,56
2017-03-15T13:10:34.718Z,56
2017-03-15T13:11:42.805Z,56
2017-03-15T13:12:50.892Z,56
2017-03-15T13:13:58.973Z,60
2017-03-15T13:15:07.062Z,60
2017-03-15T13:16:15.148Z,56
2017-03-15T13:17:23.232Z,60
2017-03-15T13:18:31.320Z,56
2017-03-15T13:19:39.405Z,60
2017-03-15T13:20:47.493Z,56
2017-03-15T13:21:55.584Z,60
2017-03-15T13:23:03.667Z,56
2017-03-15T13:24:11.754Z,52
2017-03-15T13:25:19.841Z,56
2017-03-15T13:26:27.928Z,52
2017-03-15T13:27:36.021Z,52
2017-03-15T13:28:44.107Z,56
2017-03-15T13:29:52.196Z,56
2017-03-15T13:31:00.278Z,56
2017-03-15T13:32:08.367Z,60
2017-03-15T13:33:16.454Z,60
2017-03-15T13:34:24.538Z,56
2017-03-15T13:35:32.624Z,56
2017-03-15T13:36:40.711Z,44
2017-03-15T13:37:48.797Z,44
2017-03-15T13:38:56.883Z,44
2017-03-15T13:40:04.972Z,52
2017-03-15T13:41:13.064Z,52
2017-03-15T13:42:21.144Z,48
2017-03-15T13:43:29.228Z,48
2017-03-15T13:44:37.317Z,44
2017-03-15T13:45:45.433Z,44
2017-03-15T13:46:53.490Z,40
2017-03-15T13:48:01.580Z,44
2017-03-15T13:49:09.666Z,40
2017-03-15T13:50:17.760Z,40
2017-03-15T13:51:25.850Z,40
2017-03-15T13:52:33.933Z,40
2017-03-15T13:53:42.018Z,44
2017-03-15T13:54:50.104Z,52
2017-03-15T13:55:58.194Z,56
2017-03-15T13:57:06.702Z,60
2017-03-15T13:58:14.369Z,64
2017-03-15T13:59:22.458Z,68
2017-03-15T14:00:30.712Z,64
2017-03-15T14:01:38.631Z,64
2017-03-15T14:02:46.800Z,48
2017-03-15T14:03:54.808Z,56
2017-03-15T14:05:02.896Z,64
2017-03-15T14:06:10.980Z,48
2017-03-15T14:07:19.071Z,44
2017-03-15T14:08:27.155Z,44
2017-03-15T14:09:35.238Z,44
2017-03-15T14:10:43.328Z,44
2017-03-15T14:11:51.413Z,44
2017-03-15T14:12:59.498Z,44
2017-03-15T14:14:07.583Z,44
2017-03-15T14:15:15.672Z,52
2017-03-15T14:16:23.760Z,56
2017-03-15T14:17:31.855Z,40
2017-03-15T14:18:39.936Z,36
2017-03-15T14:19:48.053Z,36
2017-03-15T14:20:56.114Z,36
2017-03-15T14:22:04.197Z,36
2017-03-15T14:23:12.286Z,40
2017-03-15T14:24:20.377Z,44
2017-03-15T14:25:28.459Z,48
2017-03-15T14:26:36.544Z,52
2017-03-15T14:27:44.634Z,56
2017-03-15T14:28:52.719Z,44
2017-03-15T14:30:00.918Z,48
2017-03-15T14:31:08.887Z,48
2017-03-15T14:32:16.976Z,48
2017-03-15T14:33:25.061Z,48
2017-03-15T14:34:33.144Z,44
2017-03-15T14:35:41.235Z,40
2017-03-15T14:36:49.317Z,44
2017-03-15T14:37:57.402Z,44
2017-03-15T14:39:05.500Z,44
2017-03-15T14:40:13.576Z,40
2017-03-15T14:41:21.659Z,40
2017-03-15T14:42:29.876Z,44
2017-03-15T14:43:37.831Z,44
2017-03-15T14:44:45.918Z,44
2017-03-15T14:45:54.002Z,40
2017-03-15T14:47:02.090Z,40
2017-03-15T14:48:10.177Z,40
2017-03-15T14:49:18.258Z,36
2017-03-15T14:50:26.349Z,36
2017-03-15T14:51:34.436Z,36
2017-03-15T14:52:42.521Z,36
2017-03-15T14:53:50.602Z,32
2017-03-15T14:54:58.693Z,32
2017-03-15T14:56:06.785Z,32
2017-03-15T14:57:14.870Z,32
2017-03-15T14:58:22.959Z,32
2017-03-15T14:59:31.044Z,32
2017-03-15T15:00:39.128Z,32
2017-03-15T15:01:47.213Z,32
2017-03-15T15:02:55.303Z,32
2017-03-15T15:04:03.383Z,36
2017-03-15T15:05:11.468Z,36
2017-03-15T15:06:19.558Z,40
2017-03-15T15:07:27.644Z,32
2017-03-15T15:08:35.732Z,32
2017-03-15T15:09:43.816Z,32
2017-03-15T15:10:51.905Z,32
2017-03-15T15:11:59.997Z,28
2017-03-15T15:13:08.071Z,32
2017-03-15T15:14:16.160Z,32
2017-03-15T15:15:24.244Z,28
2017-03-15T15:16:32.332Z,28
2017-03-15T15:17:40.416Z,28
2017-03-15T15:18:48.510Z,28
2017-03-15T15:19:56.596Z,28
2017-03-15T15:21:04.678Z,28
2017-03-15T15:22:12.768Z,28
2017-03-15T15:23:20.854Z,24
2017-03-15T15:24:28.938Z,28
2017-03-15T15:25:37.023Z,28
2017-03-15T15:26:45.110Z,28
2017-03-15T15:27:53.197Z,24
2017-03-15T15:29:01.279Z,24
2017-03-15T15:30:09.423Z,24
2017-03-15T15:31:17.455Z,24
2017-03-15T15:32:25.542Z,24
2017-03-15T15:33:33.628Z,24
2017-03-15T15:34:41.721Z,28
2017-03-15T15:35:50.159Z,24
2017-03-15T15:36:58.335Z,28
2017-03-15T15:38:05.979Z,28
2017-03-15T15:39:14.064Z,24
2017-03-15T15:40:22.145Z,24
2017-03-15T15:41:30.234Z,20
2017-03-15T15:42:38.323Z,24
2017-03-15T15:43:46.409Z,24
2017-03-15T15:44:54.546Z,24
2017-03-15T15:46:02.582Z,24
2017-03-15T15:47:10.670Z,24
2017-03-15T15:48:18.750Z,28
2017-03-15T15:49:26.850Z,24
2017-03-15T15:50:34.927Z,28
2017-03-15T15:51:43.014Z,28
2017-03-15T15:52:51.096Z,28
2017-03-15T15:53:59.184Z,28
2017-03-15T15:55:07.270Z,32
2017-03-15T15:56:15.356Z,32
2017-03-15T15:57:23.444Z,32
2017-03-15T15:58:31.531Z,28
2017-03-15T15:59:39.614Z,32
2017-03-15T16:00:47.702Z,28
2017-03-15T16:01:55.788Z,32
2017-03-15T16:03:03.877Z,28
2017-03-15T16:04:11.958Z,24
2017-03-15T16:05:20.046Z,24
2017-03-15T16:06:28.131Z,24
2017-03-15T16:07:36.219Z,20
2017-03-15T16:08:44.303Z,24
2017-03-15T16:09:52.397Z,24
2017-03-15T16:11:00.482Z,20
2017-03-15T16:12:08.565Z,24
2017-03-15T16:13:16.660Z,20
2017-03-15T16:14:24.809Z,20
2017-03-15T16:15:32.828Z,20
2017-03-15T16:16:40.925Z,16
2017-03-15T16:17:49.496Z,16
2017-03-15T16:18:57.092Z,16
2017-03-15T16:20:05.181Z,16
2017-03-15T16:21:13.266Z,12
2017-03-15T16:22:21.355Z,16
2017-03-15T16:23:29.435Z,16
2017-03-15T16:24:37.522Z,16